Time;durP1;ratioP1;P1;durP2;ratioP2;P2;SDS_P1;SDS_P2;PMS_P1;PMS_P2;Temp;Humidity;BMP_temperature;BMP_pressure;BME280_temperature;BME280_humidity;BME280_pressure;Samples;Min_cycle;Max_cycle;Signal;HPM_P1;HPM_P2
2021/12/07 00:00:17;;;;;;;2.80;2.58;;;;;;;;;;5052117;28;20553;-79
2021/12/07 00:02:43;;;;;;;2.88;2.55;;;;;;;;;;5052971;28;20157;-79
2021/12/07 00:05:10;;;;;;;3.42;2.55;;;;;;;;;;5055978;28;20184;-80
2021/12/07 00:07:36;;;;;;;3.92;2.63;;;;;;;;;;5056127;28;20518;-78
2021/12/07 00:10:02;;;;;;;3.03;2.22;;;;;;;;;;5055446;28;20267;-81
2021/12/07 00:12:34;;;;;;;3.08;2.38;;;;;;;;;;5055967;28;20654;-82
2021/12/07 00:15:02;;;;;;;2.60;2.10;;;;;;;;;;5055690;28;20199;-79
2021/12/07 00:17:29;;;;;;;2.00;1.77;;;;;;;;;;5054787;28;20584;-78
2021/12/07 00:19:55;;;;;;;3.92;2.45;;;;;;;;;;5055249;28;20179;-78
2021/12/07 00:22:21;;;;;;;3.40;2.50;;;;;;;;;;5055673;28;20248;-78
2021/12/07 00:24:47;;;;;;;2.05;1.90;;;;;;;;;;5055871;28;20521;-79
2021/12/07 00:27:13;;;;;;;2.38;2.17;;;;;;;;;;5055599;28;20189;-78
2021/12/07 00:29:39;;;;;;;3.15;2.85;;;;;;;;;;5055433;28;20181;-80
2021/12/07 00:32:18;;;;;;;2.50;2.30;;;;;;;;;;5054341;28;20233;-78
2021/12/07 00:37:27;;;;;;;3.38;2.83;;;;;;;;;;5055420;28;20654;-78
2021/12/07 00:39:56;;;;;;;3.15;2.85;;;;;;;;;;5054971;28;20169;-80
2021/12/07 00:42:23;;;;;;;3.72;3.42;;;;;;;;;;5055369;28;20181;-80
2021/12/07 00:44:49;;;;;;;4.10;2.95;;;;;;;;;;5054206;28;20229;-79
2021/12/07 00:47:15;;;;;;;3.85;3.55;;;;;;;;;;5055346;28;20258;-78
2021/12/07 00:49:41;;;;;;;3.78;3.10;;;;;;;;;;5053666;28;20190;-78
2021/12/07 00:52:07;;;;;;;4.65;3.78;;;;;;;;;;5053816;28;20197;-79
2021/12/07 00:54:33;;;;;;;4.93;4.45;;;;;;;;;;5055196;28;20245;-79
2021/12/07 00:57:01;;;;;;;5.65;4.35;;;;;;;;;;5054988;28;20694;-79
2021/12/07 00:59:27;;;;;;;7.65;6.85;;;;;;;;;;5053286;28;20271;-79
2021/12/07 01:01:53;;;;;;;8.03;7.20;;;;;;;;;;5054893;28;20294;-78
2021/12/07 01:04:19;;;;;;;6.18;5.05;;;;;;;;;;5054867;28;20408;-78
2021/12/07 01:07:07;;;;;;;12.97;8.60;;;;;;;;;;5054860;28;20539;-80
2021/12/07 01:24:39;;;;;;;10.25;6.70;;;;;;;;;;5054381;28;20865;-78
2021/12/07 01:26:11;;;;;;;14.98;11.15;;;;;;;;;;5053752;28;20551;-78
2021/12/07 01:28:42;;;;;;;11.00;7.38;;;;;;;;;;5054529;28;20179;-79
2021/12/07 01:47:28;;;;;;;10.57;6.72;;;;;;;;;;5044970;28;20183;-79
2021/12/07 01:57:55;;;;;;;6.55;4.07;;;;;;;;;;5054086;28;20188;-77
2021/12/07 02:00:22;;;;;;;13.23;3.15;;;;;;;;;;5053566;28;20197;-78
2021/12/07 02:02:48;;;;;;;10.98;4.18;;;;;;;;;;5053927;28;20366;-78
2021/12/07 02:05:15;;;;;;;6.30;3.55;;;;;;;;;;5053860;28;20736;-78
2021/12/07 02:07:41;;;;;;;4.60;2.22;;;;;;;;;;5053686;28;20184;-79
2021/12/07 02:10:12;;;;;;;5.32;3.35;;;;;;;;;;5051748;28;20551;-80
2021/12/07 02:12:43;;;;;;;8.02;4.05;;;;;;;;;;5052372;28;20651;-78
2021/12/07 02:15:11;;;;;;;10.98;3.75;;;;;;;;;;5053499;28;20232;-78
2021/12/07 02:17:37;;;;;;;11.60;5.60;;;;;;;;;;5053623;28;20179;-80
2021/12/07 02:20:04;;;;;;;9.20;6.63;;;;;;;;;;5052973;28;20569;-79
2021/12/07 02:22:30;;;;;;;13.88;6.60;;;;;;;;;;5053893;28;20201;-79
2021/12/07 02:24:56;;;;;;;12.10;6.68;;;;;;;;;;5053446;28;20195;-81
2021/12/07 02:27:22;;;;;;;14.50;7.67;;;;;;;;;;5052549;28;20183;-80
2021/12/07 02:29:48;;;;;;;16.63;7.78;;;;;;;;;;5053290;28;20455;-80
2021/12/07 02:32:14;;;;;;;19.40;9.00;;;;;;;;;;5053348;28;20189;-81
2021/12/07 02:34:53;;;;;;;9.93;5.95;;;;;;;;;;5053291;28;20452;-78
2021/12/07 02:37:27;;;;;;;13.43;8.00;;;;;;;;;;5053612;28;20243;-79
2021/12/07 02:39:53;;;;;;;21.10;8.15;;;;;;;;;;5052910;28;20177;-81
2021/12/07 02:42:19;;;;;;;11.90;7.75;;;;;;;;;;5053187;28;20178;-79
2021/12/07 02:44:45;;;;;;;17.45;7.88;;;;;;;;;;5053169;28;20188;-80
2021/12/07 02:47:12;;;;;;;13.10;5.82;;;;;;;;;;5053103;28;20169;-78
2021/12/07 02:49:38;;;;;;;16.55;7.28;;;;;;;;;;5052784;28;20189;-79
2021/12/07 02:52:04;;;;;;;15.05;7.45;;;;;;;;;;5052813;28;20205;-81
2021/12/07 02:54:32;;;;;;;14.82;7.20;;;;;;;;;;5053199;28;20256;-80
2021/12/07 02:56:58;;;;;;;18.65;5.95;;;;;;;;;;5053140;28;20176;-78
2021/12/07 02:59:24;;;;;;;13.70;5.05;;;;;;;;;;5052793;28;20626;-79
2021/12/07 03:02:06;;;;;;;8.38;5.07;;;;;;;;;;5051762;28;20216;-81
2021/12/07 03:04:38;;;;;;;18.95;5.63;;;;;;;;;;5052967;28;20177;-79
2021/12/07 03:26:10;;;;;;;15.90;5.45;;;;;;;;;;5053084;28;20550;-80
2021/12/07 03:28:38;;;;;;;15.73;5.00;;;;;;;;;;5052693;28;20634;-80
2021/12/07 03:31:04;;;;;;;15.00;5.43;;;;;;;;;;5052559;28;20233;-82
2021/12/07 03:33:30;;;;;;;12.30;5.18;;;;;;;;;;5051428;28;20366;-81
2021/12/07 03:35:56;;;;;;;14.93;5.22;;;;;;;;;;5051307;28;20216;-80
2021/12/07 03:38:22;;;;;;;17.05;4.93;;;;;;;;;;5054366;28;20201;-82
2021/12/07 03:40:48;;;;;;;13.48;5.55;;;;;;;;;;5056004;28;20719;-81
2021/12/07 03:43:15;;;;;;;11.75;6.25;;;;;;;;;;5056701;28;20544;-80
2021/12/07 03:45:41;;;;;;;15.25;7.15;;;;;;;;;;5056463;28;20209;-80
2021/12/07 03:48:08;;;;;;;11.10;6.90;;;;;;;;;;5056480;28;20188;-79
2021/12/07 03:50:35;;;;;;;13.88;7.13;;;;;;;;;;5055946;28;20204;-80
2021/12/07 03:53:02;;;;;;;14.77;6.90;;;;;;;;;;5056384;28;20177;-81
2021/12/07 03:55:28;;;;;;;18.73;7.70;;;;;;;;;;5054978;28;20585;-80
2021/12/07 03:57:54;;;;;;;12.35;7.72;;;;;;;;;;5056238;28;20184;-79
2021/12/07 04:00:22;;;;;;;10.25;5.20;;;;;;;;;;5055786;28;20197;-81
2021/12/07 04:02:50;;;;;;;14.73;6.75;;;;;;;;;;5055916;28;20170;-81
2021/12/07 04:05:18;;;;;;;11.52;7.30;;;;;;;;;;5056076;28;20566;-81
2021/12/07 04:07:44;;;;;;;20.08;6.75;;;;;;;;;;5056291;28;20257;-81
2021/12/07 04:10:12;;;;;;;14.68;6.93;;;;;;;;;;5055612;28;20237;-80
2021/12/07 04:12:38;;;;;;;16.40;6.88;;;;;;;;;;5055986;28;20598;-81
2021/12/07 04:15:05;;;;;;;20.55;6.18;;;;;;;;;;5054325;28;20215;-79
2021/12/07 04:17:31;;;;;;;18.00;7.03;;;;;;;;;;5054641;28;20547;-81
2021/12/07 04:19:57;;;;;;;19.52;7.53;;;;;;;;;;5055420;28;20597;-79
2021/12/07 04:22:23;;;;;;;16.73;6.30;;;;;;;;;;5055838;28;20176;-81
2021/12/07 04:24:49;;;;;;;18.45;7.93;;;;;;;;;;5055801;28;20570;-79
2021/12/07 04:27:15;;;;;;;18.13;7.15;;;;;;;;;;5055452;28;20597;-80
2021/12/07 04:29:41;;;;;;;17.00;7.45;;;;;;;;;;5055187;28;20246;-79
2021/12/07 04:32:07;;;;;;;16.77;5.60;;;;;;;;;;5054612;28;20200;-82
2021/12/07 04:34:33;;;;;;;15.43;6.78;;;;;;;;;;5055828;28;20568;-80
2021/12/07 04:36:59;;;;;;;17.70;7.83;;;;;;;;;;5055516;28;20227;-81
2021/12/07 04:39:26;;;;;;;16.83;7.97;;;;;;;;;;5055176;28;20842;-79
2021/12/07 04:41:52;;;;;;;27.75;8.77;;;;;;;;;;5055360;28;20231;-80
2021/12/07 04:44:21;;;;;;;21.30;9.93;;;;;;;;;;5055319;28;20175;-80
2021/12/07 04:47:07;;;;;;;14.20;6.53;;;;;;;;;;5055300;28;20613;-79
2021/12/07 04:49:56;;;;;;;26.02;9.15;;;;;;;;;;5053825;28;20180;-78
2021/12/07 04:57:49;;;;;;;16.73;7.55;;;;;;;;;;5055398;28;20234;-81
2021/12/07 05:00:23;;;;;;;17.10;7.35;;;;;;;;;;5054866;28;20195;-79
2021/12/07 05:02:56;;;;;;;14.32;6.78;;;;;;;;;;5053755;28;20311;-80
2021/12/07 05:05:29;;;;;;;13.98;8.75;;;;;;;;;;5055018;28;20520;-80
2021/12/07 05:07:58;;;;;;;15.18;6.60;;;;;;;;;;5055107;28;20508;-80
2021/12/07 05:13:10;;;;;;;15.35;7.00;;;;;;;;;;5054832;28;20178;-80
2021/12/07 05:37:44;;;;;;;11.95;5.95;;;;;;;;;;5054579;28;20211;-80
2021/12/07 05:37:46;;;;;;;15.40;5.60;;;;;;;;;;5054561;28;20284;-80
2021/12/07 05:40:22;;;;;;;10.30;5.70;;;;;;;;;;5053876;28;20211;-80
2021/12/07 05:42:49;;;;;;;9.65;4.15;;;;;;;;;;5054350;28;20176;-80
2021/12/07 05:45:17;;;;;;;11.65;6.63;;;;;;;;;;5054131;28;20180;-79
2021/12/07 05:47:43;;;;;;;11.07;4.65;;;;;;;;;;5052715;28;20645;-80
2021/12/07 05:50:10;;;;;;;21.38;7.50;;;;;;;;;;5053750;28;20683;-80
2021/12/07 05:52:36;;;;;;;17.58;5.95;;;;;;;;;;5052778;28;20267;-79
2021/12/07 05:55:04;;;;;;;13.93;5.23;;;;;;;;;;5054031;28;20307;-80
2021/12/07 05:57:30;;;;;;;6.85;4.65;;;;;;;;;;5053773;28;20442;-79
2021/12/07 05:59:56;;;;;;;14.73;5.35;;;;;;;;;;5053604;28;20207;-81
2021/12/07 06:02:22;;;;;;;12.57;5.68;;;;;;;;;;5053574;28;20180;-79
2021/12/07 06:04:48;;;;;;;21.08;6.22;;;;;;;;;;5053778;28;20177;-80
2021/12/07 06:07:14;;;;;;;12.40;5.43;;;;;;;;;;5053724;28;20528;-79
2021/12/07 06:09:40;;;;;;;13.80;6.00;;;;;;;;;;5053299;28;20197;-80
2021/12/07 06:12:06;;;;;;;10.52;5.95;;;;;;;;;;5053439;28;20859;-79
2021/12/07 06:14:36;;;;;;;11.82;5.00;;;;;;;;;;5052255;28;20196;-79
2021/12/07 06:17:02;;;;;;;12.60;4.30;;;;;;;;;;5052283;28;20169;-78
2021/12/07 06:19:28;;;;;;;11.00;4.90;;;;;;;;;;5053177;28;20237;-78
2021/12/07 06:21:54;;;;;;;14.73;5.32;;;;;;;;;;5053307;28;20224;-81
2021/12/07 06:24:20;;;;;;;12.02;5.32;;;;;;;;;;5053238;28;20189;-80
2021/12/07 06:26:47;;;;;;;10.02;4.88;;;;;;;;;;5053165;28;20185;-80
2021/12/07 06:29:13;;;;;;;11.65;4.78;;;;;;;;;;5053022;28;20199;-78
2021/12/07 06:31:39;;;;;;;10.57;4.55;;;;;;;;;;5053257;28;20287;-77
2021/12/07 06:34:05;;;;;;;12.88;4.80;;;;;;;;;;5052694;28;20338;-81
2021/12/07 06:36:31;;;;;;;14.73;4.60;;;;;;;;;;5053262;28;20644;-79
2021/12/07 06:38:57;;;;;;;18.73;4.70;;;;;;;;;;5052097;28;20181;-80
2021/12/07 06:41:23;;;;;;;16.63;5.60;;;;;;;;;;5051761;28;20554;-79
2021/12/07 06:43:49;;;;;;;17.13;4.82;;;;;;;;;;5052949;28;20176;-81
2021/12/07 06:46:15;;;;;;;7.35;3.53;;;;;;;;;;5052972;28;20177;-79
2021/12/07 06:48:41;;;;;;;7.60;3.83;;;;;;;;;;5035280;28;20189;-78
2021/12/07 06:51:07;;;;;;;7.45;3.50;;;;;;;;;;5052557;28;20533;-78
2021/12/07 06:53:36;;;;;;;9.80;5.57;;;;;;;;;;5053167;28;20200;-80
2021/12/07 06:56:06;;;;;;;14.55;3.38;;;;;;;;;;5052773;28;20205;-78
2021/12/07 06:58:32;;;;;;;9.00;3.72;;;;;;;;;;5053045;28;20167;-79
2021/12/07 07:00:58;;;;;;;15.85;4.10;;;;;;;;;;5052496;28;20224;-79
2021/12/07 07:03:24;;;;;;;12.85;3.25;;;;;;;;;;5051725;28;20204;-80
2021/12/07 07:05:50;;;;;;;14.13;4.30;;;;;;;;;;5053121;28;20184;-80
2021/12/07 07:08:16;;;;;;;10.65;2.90;;;;;;;;;;5052998;28;20759;-80
2021/12/07 07:10:43;;;;;;;8.20;3.45;;;;;;;;;;5052605;28;20265;-80
2021/12/07 07:13:09;;;;;;;12.30;3.65;;;;;;;;;;5054295;28;20182;-82
2021/12/07 07:15:35;;;;;;;6.95;3.10;;;;;;;;;;5055054;28;20206;-79
2021/12/07 07:18:01;;;;;;;14.45;3.35;;;;;;;;;;5056878;28;20586;-77
2021/12/07 07:20:28;;;;;;;14.80;3.08;;;;;;;;;;5056339;28;20196;-80
2021/12/07 07:22:54;;;;;;;8.65;3.53;;;;;;;;;;5056037;28;20180;-81
2021/12/07 07:25:21;;;;;;;9.35;2.85;;;;;;;;;;5056540;28;20263;-79
2021/12/07 07:27:47;;;;;;;11.10;3.42;;;;;;;;;;5056574;28;20183;-80
2021/12/07 07:30:14;;;;;;;12.18;3.13;;;;;;;;;;5056189;28;20205;-80
2021/12/07 07:32:40;;;;;;;7.57;3.00;;;;;;;;;;5059498;28;20183;-80
2021/12/07 07:35:07;;;;;;;5.88;2.58;;;;;;;;;;5056517;28;20212;-80
2021/12/07 07:37:34;;;;;;;11.38;3.00;;;;;;;;;;5055609;28;20177;-80
2021/12/07 07:40:00;;;;;;;11.25;3.50;;;;;;;;;;5065907;28;20643;-81
2021/12/07 07:42:26;;;;;;;12.13;2.95;;;;;;;;;;5056801;28;20176;-79
2021/12/07 07:44:52;;;;;;;10.82;3.13;;;;;;;;;;5076439;28;20224;-79
2021/12/07 07:47:18;;;;;;;12.60;3.23;;;;;;;;;;5076422;28;20187;-81
2021/12/07 07:49:44;;;;;;;12.77;3.92;;;;;;;;;;5058312;28;20413;-80
2021/12/07 07:52:09;;;;;;;7.83;2.73;;;;;;;;;;5061818;28;20677;-80
2021/12/07 07:54:35;;;;;;;9.95;4.20;;;;;;;;;;5056272;28;20544;-79
2021/12/07 07:57:01;;;;;;;10.50;3.30;;;;;;;;;;5056199;28;20183;-79
2021/12/07 07:59:27;;;;;;;14.57;4.13;;;;;;;;;;5055981;28;20195;-79
2021/12/07 08:01:53;;;;;;;18.63;4.47;;;;;;;;;;5056164;28;20434;-78
2021/12/07 08:04:19;;;;;;;11.90;4.20;;;;;;;;;;5056179;28;20184;-78
2021/12/07 08:06:46;;;;;;;16.98;3.55;;;;;;;;;;5072398;28;20657;-82
2021/12/07 08:09:13;;;;;;;24.70;5.13;;;;;;;;;;5075657;28;20542;-80
2021/12/07 08:11:39;;;;;;;12.10;4.25;;;;;;;;;;5075740;28;20209;-81
2021/12/07 08:14:05;;;;;;;7.78;3.88;;;;;;;;;;5075664;28;20191;-80
2021/12/07 08:16:31;;;;;;;8.43;3.60;;;;;;;;;;5075807;28;20189;-79
2021/12/07 08:18:57;;;;;;;19.88;4.65;;;;;;;;;;5057799;28;20206;-80
2021/12/07 08:21:23;;;;;;;21.83;4.53;;;;;;;;;;5075290;28;20615;-80
2021/12/07 08:23:49;;;;;;;13.95;4.07;;;;;;;;;;5075625;28;20517;-82
2021/12/07 08:26:17;;;;;;;15.13;4.40;;;;;;;;;;5075653;28;20173;-79
2021/12/07 08:28:43;;;;;;;13.15;3.72;;;;;;;;;;5075427;28;20176;-79
2021/12/07 08:31:09;;;;;;;9.50;3.58;;;;;;;;;;5075086;28;20235;-80
2021/12/07 08:33:36;;;;;;;13.98;4.97;;;;;;;;;;5075728;28;20171;-80
2021/12/07 08:36:02;;;;;;;11.85;4.47;;;;;;;;;;5075408;28;20541;-78
2021/12/07 08:38:29;;;;;;;14.82;5.18;;;;;;;;;;5075357;28;20175;-79
2021/12/07 08:40:56;;;;;;;12.13;4.82;;;;;;;;;;5074904;28;20191;-79
2021/12/07 08:43:23;;;;;;;18.67;6.32;;;;;;;;;;5075604;28;20182;-80
2021/12/07 08:45:50;;;;;;;9.82;6.10;;;;;;;;;;5075574;28;20176;-79
2021/12/07 08:48:17;;;;;;;10.43;5.57;;;;;;;;;;5075312;28;20177;-81
2021/12/07 08:50:44;;;;;;;15.40;6.65;;;;;;;;;;5074802;28;20190;-79
2021/12/07 08:53:12;;;;;;;13.32;5.38;;;;;;;;;;5074949;28;20274;-81
2021/12/07 09:01:09;;;;;;;15.63;5.22;;;;;;;;;;5061856;28;20215;-80
2021/12/07 09:03:35;;;;;;;12.50;5.85;;;;;;;;;;5063550;28;20200;-81
2021/12/07 09:06:01;;;;;;;11.02;5.43;;;;;;;;;;5060609;28;20215;-81
2021/12/07 09:08:27;;;;;;;10.48;4.88;;;;;;;;;;5066171;28;20184;-79
2021/12/07 09:10:53;;;;;;;12.38;5.10;;;;;;;;;;5074359;28;20223;-81
2021/12/07 09:13:20;;;;;;;13.38;4.05;;;;;;;;;;5074843;28;20196;-81
2021/12/07 09:15:46;;;;;;;11.00;4.78;;;;;;;;;;5074856;28;20613;-81
2021/12/07 09:18:12;;;;;;;10.48;4.75;;;;;;;;;;5074847;28;20255;-81
2021/12/07 09:20:38;;;;;;;16.48;4.35;;;;;;;;;;5053632;28;20611;-81
2021/12/07 09:23:05;;;;;;;14.13;3.83;;;;;;;;;;5074472;28;20201;-80
2021/12/07 09:25:31;;;;;;;17.52;4.65;;;;;;;;;;5074462;28;20173;-79
2021/12/07 09:27:57;;;;;;;10.30;3.72;;;;;;;;;;5074597;28;20189;-80
2021/12/07 09:30:23;;;;;;;7.13;3.67;;;;;;;;;;5073906;28;20224;-80
2021/12/07 09:32:49;;;;;;;8.07;3.60;;;;;;;;;;5074444;28;20593;-79
2021/12/07 09:35:16;;;;;;;11.32;4.00;;;;;;;;;;5073594;28;20233;-80
2021/12/07 09:37:42;;;;;;;9.90;4.00;;;;;;;;;;5074094;28;20185;-79
2021/12/07 09:40:10;;;;;;;13.93;3.30;;;;;;;;;;5073757;28;21575;-79
2021/12/07 09:42:36;;;;;;;5.47;3.00;;;;;;;;;;5074271;28;20180;-79
2021/12/07 09:45:03;;;;;;;9.23;3.45;;;;;;;;;;5074383;28;20212;-79
2021/12/07 09:47:29;;;;;;;8.52;3.10;;;;;;;;;;5073964;28;20180;-78
2021/12/07 09:49:55;;;;;;;12.05;3.42;;;;;;;;;;5073588;28;20180;-80
2021/12/07 09:52:21;;;;;;;12.10;3.20;;;;;;;;;;5073844;28;20562;-78
2021/12/07 09:54:47;;;;;;;11.75;3.30;;;;;;;;;;5073854;28;20200;-79
2021/12/07 09:57:13;;;;;;;8.60;3.00;;;;;;;;;;5074108;28;20181;-79
2021/12/07 09:59:39;;;;;;;17.37;4.20;;;;;;;;;;5073609;28;20172;-78
2021/12/07 10:02:07;;;;;;;13.52;2.78;;;;;;;;;;5070454;28;20433;-78
2021/12/07 10:04:33;;;;;;;8.63;2.95;;;;;;;;;;5043089;28;20272;-78
2021/12/07 10:07:00;;;;;;;12.00;3.03;;;;;;;;;;5053760;28;20535;-79
2021/12/07 10:09:26;;;;;;;6.45;2.30;;;;;;;;;;5053486;28;20195;-79
2021/12/07 10:11:53;;;;;;;6.60;2.50;;;;;;;;;;5053221;28;20217;-79
2021/12/07 10:14:20;;;;;;;7.32;2.03;;;;;;;;;;5053617;28;20194;-79
2021/12/07 10:16:47;;;;;;;10.23;2.70;;;;;;;;;;5053518;28;20253;-79
2021/12/07 10:19:15;;;;;;;5.47;1.83;;;;;;;;;;5053140;28;20173;-78
2021/12/07 10:21:43;;;;;;;8.88;2.40;;;;;;;;;;5053307;28;20197;-77
2021/12/07 10:24:11;;;;;;;7.43;2.33;;;;;;;;;;5035645;28;20184;-79
2021/12/07 10:26:42;;;;;;;12.65;3.05;;;;;;;;;;5053495;28;20223;-77
2021/12/07 10:29:08;;;;;;;6.25;1.75;;;;;;;;;;5053291;28;20178;-78
2021/12/07 10:31:37;;;;;;;8.30;2.80;;;;;;;;;;5052898;28;20667;-79
2021/12/07 10:34:07;;;;;;;13.52;2.78;;;;;;;;;;5053094;28;20932;-79
2021/12/07 10:36:57;;;;;;;6.90;2.05;;;;;;;;;;5055938;28;20214;-78
2021/12/07 10:39:28;;;;;;;8.48;2.42;;;;;;;;;;5057883;28;20670;-78
2021/12/07 10:42:01;;;;;;;5.00;2.60;;;;;;;;;;5072957;28;20197;-78
2021/12/07 10:44:31;;;;;;;5.63;2.33;;;;;;;;;;5073337;28;20187;-78
2021/12/07 10:46:59;;;;;;;8.20;1.50;;;;;;;;;;5055094;28;20177;-78
2021/12/07 10:49:26;;;;;;;3.28;1.83;;;;;;;;;;5072826;28;20197;-78
2021/12/07 10:51:57;;;;;;;5.50;2.85;;;;;;;;;;5073185;28;20194;-80
2021/12/07 10:54:24;;;;;;;6.65;1.40;;;;;;;;;;5055021;28;20299;-77
2021/12/07 10:56:50;;;;;;;4.32;2.00;;;;;;;;;;5073061;28;20181;-81
2021/12/07 10:59:17;;;;;;;6.13;1.77;;;;;;;;;;5073152;28;20176;-80
2021/12/07 11:01:44;;;;;;;4.15;1.70;;;;;;;;;;5055251;28;20203;-77
2021/12/07 11:04:30;;;;;;;5.32;2.10;;;;;;;;;;5072926;28;20240;-78
2021/12/07 11:07:08;;;;;;;5.80;2.00;;;;;;;;;;5072962;28;20213;-78
2021/12/07 11:09:56;;;;;;;8.00;1.77;;;;;;;;;;5072872;28;20177;-79
2021/12/07 11:12:23;;;;;;;5.97;1.80;;;;;;;;;;5054974;28;20184;-78
2021/12/07 11:14:52;;;;;;;5.25;1.70;;;;;;;;;;5072899;28;20216;-77
2021/12/07 11:17:23;;;;;;;10.15;2.78;;;;;;;;;;5073010;28;20257;-77
2021/12/07 11:19:49;;;;;;;4.72;2.22;;;;;;;;;;5072648;28;20260;-76
2021/12/07 11:22:16;;;;;;;8.43;2.75;;;;;;;;;;5072804;28;20161;-78
2021/12/07 11:24:44;;;;;;;7.07;1.70;;;;;;;;;;5072843;28;20181;-77
2021/12/07 11:30:27;;;;;;;5.22;1.70;;;;;;;;;;5041238;28;20187;-77
2021/12/07 11:32:56;;;;;;;4.68;1.70;;;;;;;;;;5072671;28;20169;-77
2021/12/07 11:35:24;;;;;;;5.15;1.80;;;;;;;;;;5072738;28;20197;-79
2021/12/07 11:37:50;;;;;;;5.63;1.90;;;;;;;;;;5072554;28;20184;-78
2021/12/07 11:40:22;;;;;;;5.10;2.08;;;;;;;;;;5072075;28;20211;-79
2021/12/07 11:42:48;;;;;;;6.57;1.75;;;;;;;;;;5054852;28;20207;-77
2021/12/07 11:45:18;;;;;;;2.42;1.60;;;;;;;;;;5072750;28;20177;-78
2021/12/07 11:47:49;;;;;;;4.45;1.50;;;;;;;;;;5072859;28;20184;-78
2021/12/07 11:50:18;;;;;;;5.55;2.63;;;;;;;;;;5072444;28;20552;-77
2021/12/07 11:52:45;;;;;;;6.68;1.95;;;;;;;;;;5072581;28;20255;-77
2021/12/07 11:55:11;;;;;;;6.25;3.33;;;;;;;;;;5072398;28;20665;-79
2021/12/07 11:57:38;;;;;;;5.75;2.20;;;;;;;;;;5072496;28;20533;-77
2021/12/07 12:00:05;;;;;;;3.40;1.27;;;;;;;;;;5074795;28;20529;-77
2021/12/07 12:02:31;;;;;;;2.38;1.40;;;;;;;;;;5076150;28;20226;-77
2021/12/07 12:04:57;;;;;;;3.75;1.60;;;;;;;;;;5076279;28;20176;-79
2021/12/07 12:07:23;;;;;;;3.55;1.63;;;;;;;;;;5076181;28;20173;-77
2021/12/07 12:09:52;;;;;;;5.87;1.90;;;;;;;;;;5075703;28;20651;-77
2021/12/07 12:12:21;;;;;;;5.97;1.40;;;;;;;;;;5075981;28;20775;-78
2021/12/07 12:14:50;;;;;;;3.75;1.58;;;;;;;;;;5075772;28;20587;-79
2021/12/07 12:17:35;;;;;;;3.72;1.65;;;;;;;;;;5075824;28;20548;-77
2021/12/07 12:20:20;;;;;;;2.45;1.40;;;;;;;;;;5057427;28;20180;-78
2021/12/07 12:22:48;;;;;;;6.65;1.63;;;;;;;;;;5075686;28;20165;-77
2021/12/07 12:25:15;;;;;;;4.57;1.35;;;;;;;;;;5057684;28;20185;-77
2021/12/07 12:27:43;;;;;;;4.40;2.00;;;;;;;;;;5075799;28;20173;-78
2021/12/07 12:30:09;;;;;;;4.45;1.60;;;;;;;;;;5075093;28;20211;-78
2021/12/07 12:32:36;;;;;;;4.68;1.80;;;;;;;;;;5075476;28;20184;-77
2021/12/07 12:35:03;;;;;;;6.57;1.75;;;;;;;;;;5075379;28;20250;-76
2021/12/07 12:37:33;;;;;;;4.88;1.45;;;;;;;;;;5075506;28;20667;-79
2021/12/07 12:40:01;;;;;;;8.35;3.00;;;;;;;;;;5074973;28;20291;-75
2021/12/07 12:42:38;;;;;;;7.07;1.67;;;;;;;;;;5075382;28;20180;-77
2021/12/07 12:45:11;;;;;;;6.05;1.55;;;;;;;;;;5075260;28;20169;-76
2021/12/07 12:47:38;;;;;;;4.60;1.70;;;;;;;;;;5075303;28;20258;-77
2021/12/07 12:50:18;;;;;;;4.30;1.65;;;;;;;;;;5074795;28;20522;-78
2021/12/07 12:52:54;;;;;;;6.45;1.88;;;;;;;;;;5049663;28;20679;-76
2021/12/07 12:55:39;;;;;;;3.50;1.55;;;;;;;;;;5066444;28;20197;-77
2021/12/07 12:58:07;;;;;;;2.25;1.13;;;;;;;;;;5063065;28;20173;-78
2021/12/07 13:00:51;;;;;;;7.40;1.50;;;;;;;;;;5073003;28;20201;-76
2021/12/07 13:03:17;;;;;;;3.35;1.30;;;;;;;;;;5075086;28;20175;-77
2021/12/07 13:05:45;;;;;;;9.70;2.30;;;;;;;;;;5075100;28;20298;-78
2021/12/07 13:08:18;;;;;;;3.28;1.10;;;;;;;;;;5074941;28;20403;-77
2021/12/07 13:11:00;;;;;;;6.10;2.00;;;;;;;;;;5073609;28;20216;-77
2021/12/07 13:13:37;;;;;;;4.00;1.83;;;;;;;;;;5074800;28;20173;-76
2021/12/07 13:16:16;;;;;;;5.30;1.55;;;;;;;;;;5074902;28;20278;-78
2021/12/07 13:18:43;;;;;;;5.32;2.00;;;;;;;;;;5074669;28;20169;-77
2021/12/07 13:21:25;;;;;;;3.22;1.30;;;;;;;;;;5074293;28;20275;-78
2021/12/07 13:23:58;;;;;;;7.63;1.55;;;;;;;;;;5074476;28;20164;-78
2021/12/07 13:26:24;;;;;;;5.25;1.75;;;;;;;;;;5074512;28;20254;-76
2021/12/07 13:29:01;;;;;;;6.88;1.67;;;;;;;;;;5074272;28;20184;-76
2021/12/07 13:31:35;;;;;;;2.80;1.10;;;;;;;;;;5074074;28;20609;-78
2021/12/07 13:34:02;;;;;;;1.98;1.40;;;;;;;;;;5074189;28;20252;-77
2021/12/07 13:36:30;;;;;;;4.88;1.52;;;;;;;;;;5074253;28;20172;-78
2021/12/07 13:39:08;;;;;;;2.88;1.50;;;;;;;;;;5074140;28;20169;-77
2021/12/07 13:41:34;;;;;;;6.82;1.75;;;;;;;;;;5073770;28;20188;-76
2021/12/07 13:44:00;;;;;;;10.57;1.83;;;;;;;;;;5074056;28;20548;-78
2021/12/07 13:46:28;;;;;;;6.97;1.60;;;;;;;;;;5073962;28;20178;-76
2021/12/07 13:49:11;;;;;;;13.48;2.05;;;;;;;;;;5074129;28;20172;-75
2021/12/07 13:51:38;;;;;;;6.05;1.55;;;;;;;;;;5073941;28;20203;-77
2021/12/07 13:54:05;;;;;;;4.32;1.30;;;;;;;;;;5073741;28;20696;-77
2021/12/07 13:56:37;;;;;;;4.15;1.80;;;;;;;;;;5073972;28;20185;-76
2021/12/07 13:59:08;;;;;;;3.75;1.65;;;;;;;;;;5073903;28;20176;-77
2021/12/07 14:01:35;;;;;;;5.50;1.77;;;;;;;;;;5055414;28;20224;-77
2021/12/07 14:04:02;;;;;;;2.85;1.60;;;;;;;;;;5073722;28;20259;-76
2021/12/07 14:06:28;;;;;;;3.78;1.85;;;;;;;;;;5073693;28;20206;-75
2021/12/07 14:09:01;;;;;;;5.70;1.73;;;;;;;;;;5073960;28;20173;-77
2021/12/07 14:11:27;;;;;;;8.48;2.25;;;;;;;;;;5073239;28;20303;-76
2021/12/07 14:13:55;;;;;;;8.32;2.15;;;;;;;;;;5054948;28;20208;-76
2021/12/07 14:16:23;;;;;;;7.85;2.42;;;;;;;;;;5056181;28;20215;-75
2021/12/07 14:18:50;;;;;;;4.10;2.20;;;;;;;;;;5073718;28;20255;-77
2021/12/07 14:21:16;;;;;;;6.82;1.90;;;;;;;;;;5073012;28;20203;-76
2021/12/07 14:23:43;;;;;;;2.65;1.67;;;;;;;;;;5073320;28;20265;-74
2021/12/07 14:26:11;;;;;;;5.38;1.77;;;;;;;;;;5073286;28;20179;-76
2021/12/07 14:28:37;;;;;;;5.25;1.60;;;;;;;;;;5073335;28;20308;-75
2021/12/07 14:31:08;;;;;;;5.60;2.43;;;;;;;;;;5073059;28;20685;-79
2021/12/07 14:33:53;;;;;;;7.57;2.20;;;;;;;;;;5073332;28;20430;-76
2021/12/07 14:36:21;;;;;;;4.82;1.52;;;;;;;;;;5073460;28;20206;-78
2021/12/07 14:38:48;;;;;;;5.20;2.05;;;;;;;;;;5073262;28;20259;-77
2021/12/07 14:41:15;;;;;;;6.40;2.10;;;;;;;;;;5054866;28;20200;-78
2021/12/07 14:43:41;;;;;;;8.20;2.08;;;;;;;;;;5073086;28;20180;-78
2021/12/07 14:46:09;;;;;;;6.05;2.25;;;;;;;;;;5073274;28;20173;-77
2021/12/07 14:48:35;;;;;;;3.03;1.65;;;;;;;;;;5055403;28;20641;-76
2021/12/07 14:51:09;;;;;;;5.40;2.25;;;;;;;;;;5072705;28;20199;-79
2021/12/07 14:53:36;;;;;;;9.50;2.95;;;;;;;;;;5072986;28;20261;-77
2021/12/07 14:56:03;;;;;;;8.05;2.80;;;;;;;;;;5073217;28;20211;-78
2021/12/07 14:58:33;;;;;;;5.05;2.55;;;;;;;;;;5073053;28;20244;-79
2021/12/07 15:00:59;;;;;;;4.90;2.40;;;;;;;;;;5072708;28;20196;-78
2021/12/07 15:03:39;;;;;;;8.50;2.08;;;;;;;;;;5073120;28;20176;-78
2021/12/07 15:06:05;;;;;;;5.38;1.90;;;;;;;;;;5072856;28;20595;-77
2021/12/07 15:08:31;;;;;;;4.85;2.58;;;;;;;;;;5073315;28;20177;-77
2021/12/07 15:10:59;;;;;;;9.20;2.90;;;;;;;;;;5054795;28;20309;-79
2021/12/07 15:13:25;;;;;;;7.18;2.80;;;;;;;;;;5073021;28;20537;-77
2021/12/07 15:15:54;;;;;;;6.85;2.33;;;;;;;;;;5072706;28;20238;-79
2021/12/07 15:18:25;;;;;;;4.00;2.15;;;;;;;;;;5073165;28;20633;-77
2021/12/07 15:20:51;;;;;;;5.15;2.00;;;;;;;;;;5072577;28;20282;-77
2021/12/07 15:23:19;;;;;;;5.50;1.90;;;;;;;;;;5072881;28;20204;-77
2021/12/07 15:25:48;;;;;;;6.90;2.33;;;;;;;;;;5055184;28;20184;-77
2021/12/07 15:28:14;;;;;;;4.95;1.98;;;;;;;;;;5072816;28;20626;-78
2021/12/07 15:30:42;;;;;;;11.50;2.30;;;;;;;;;;5072533;28;20248;-78
2021/12/07 15:33:08;;;;;;;5.68;2.10;;;;;;;;;;5072811;28;20169;-79
2021/12/07 15:35:34;;;;;;;6.85;2.00;;;;;;;;;;5058326;28;20325;-76
2021/12/07 15:38:00;;;;;;;6.15;2.53;;;;;;;;;;5076445;28;20172;-78
2021/12/07 15:40:26;;;;;;;3.28;2.28;;;;;;;;;;5058079;28;20196;-77
2021/12/07 15:42:52;;;;;;;4.20;1.60;;;;;;;;;;5076602;28;20177;-76
2021/12/07 15:45:18;;;;;;;4.15;2.50;;;;;;;;;;5076399;28;20170;-78
2021/12/07 15:47:46;;;;;;;5.40;2.35;;;;;;;;;;5076506;28;20590;-78
2021/12/07 15:50:15;;;;;;;6.80;2.08;;;;;;;;;;5075762;28;20254;-77
2021/12/07 15:52:41;;;;;;;2.47;1.90;;;;;;;;;;5076366;28;20187;-78
2021/12/07 15:55:10;;;;;;;5.47;2.08;;;;;;;;;;5076258;28;20204;-77
2021/12/07 15:57:56;;;;;;;3.65;2.10;;;;;;;;;;5076114;28;20634;-77
2021/12/07 16:00:22;;;;;;;8.40;2.33;;;;;;;;;;5075649;28;20207;-78
2021/12/07 16:03:03;;;;;;;6.90;2.33;;;;;;;;;;5076061;28;20534;-78
2021/12/07 16:05:38;;;;;;;6.60;2.38;;;;;;;;;;5075984;28;20653;-78
2021/12/07 16:08:08;;;;;;;5.53;2.25;;;;;;;;;;5075944;28;20180;-78
2021/12/07 16:10:35;;;;;;;4.70;2.40;;;;;;;;;;5075303;28;20637;-78
2021/12/07 16:13:01;;;;;;;5.85;2.50;;;;;;;;;;5075878;28;20180;-78
2021/12/07 16:15:28;;;;;;;7.03;2.20;;;;;;;;;;5076009;28;20203;-77
2021/12/07 16:17:55;;;;;;;8.52;2.38;;;;;;;;;;5076025;28;20252;-78
2021/12/07 16:20:22;;;;;;;9.80;3.38;;;;;;;;;;5075424;28;20197;-77